Flight Track Log - Related Links

Times and Time Zones

All times are in EDT time to prevent confusion due to time zone crossing. See the FIV705 flight status page for this flight to view local times or setup timezone preferences in your user account.

Time Position Orientation Groundspeed Altitude Reporting Facility
EDT Latitude Longitude Course Direction KTS MPH feet Rate Location/Type
Tue 01:33:29 PM 47.5117 -122.2878 148° Southeast 190 219 1,200  Level Seattle Center
Tue 01:34:42 PM 47.4389 -122.2197 148° Southeast 281 323 3,200 1,657 Climbing Seattle Center
Tue 01:35:43 PM 47.4297 -122.1233 98° East 279 321 4,900 939 Climbing Seattle Center
Tue 01:36:37 PM 47.4933 -122.0847 22° Northeast 272 313 5,000 -99 Climbing Seattle Center
Tue 01:37:44 PM 47.5725 -122.0897 358° North 264 304 4,700 -516 Descending Seattle Center
Tue 01:38:10 PM 47.6058 -122.0917 358° North 267 307 4,200 -1,180 Descending Seattle Center
Tue 01:38:45 PM 47.6472 -122.0942 358° North 270 311 3,500 -1,082 Descending Seattle Center
Tue 01:39:11 PM 47.6817 -122.0953 359° North 273 314 3,100 -492 Descending Seattle Center
Tue 01:39:46 PM 47.7275 -122.0956 360° North 273 314 3,000 -98 Descending Seattle Center
Tue 01:40:12 PM 47.7550 -122.0975 357° North 265 305 3,000 98 Level Seattle Center
Tue 01:40:47 PM 47.7994 -122.0981 360° North 261 300 3,100 98 Climbing Seattle Center
Tue 01:41:13 PM 47.8211 -122.0992 358° North 261 300 3,100  Level Seattle Center
Tue 01:41:48 PM 47.8742 -122.1028 357° North 268 308 3,100  Level Seattle Center
Tue 01:42:14 PM 47.8956 -122.1011 North 269 310 3,100 -125 Level Seattle Center
Tue 01:42:36 PM 47.9328 -122.1061 355° North 243 280 3,000 -98 Descending Seattle Center
Tue 01:43:15 PM 47.9686 -122.1042 North 206 237 3,000 98 Level Seattle Center
Tue 01:43:37 PM 47.9900 -122.1039 360° North 196 226 3,100 98 Climbing Seattle Center
Tue 01:44:16 PM 48.0239 -122.1125 350° North 203 234 3,100 -98 Level Seattle Center
Tue 01:44:38 PM 48.0439 -122.1233 340° North 207 238 3,000 -98 Descending Seattle Center
Tue 01:45:17 PM 48.0714 -122.1517 325° Northwest 198 228 3,000  Level Seattle Center
Tue 01:45:38 PM 48.0811 -122.1822 295° West 196 226 3,000 98 Level Seattle Center
Tue 01:46:18 PM 48.0919 -122.2283 289° West 206 237 3,100 98 Climbing Seattle Center
Tue 01:46:39 PM 48.0903 -122.2633 266° West 209 241 3,100 -98 Level Seattle Center
Tue 01:47:19 PM 48.0669 -122.2881 215° Southwest 208 239 3,000 -90 Descending Seattle Center
Tue 01:47:46 PM 48.0350 -122.2908 183° South 201 231 3,000 -590 Level Seattle Center
Tue 01:48:20 PM 48.0128 -122.2872 174° South 192 221 2,400 -984 Descending Seattle Center
Tue 01:48:47 PM 47.9881 -122.2903 185° South 145 167 2,000 -700 Descending Seattle Center
Tue 01:49:20 PM 47.9725 -122.2869 172° South 142 163 1,700 -716 Descending Seattle Center
Tue 01:49:54 PM 47.9472 -122.2867 180° South 139 160 1,200 -689 Descending Seattle Center
Tue 01:50:21 PM 47.9358 -122.2864 179° South 134 154 1,000 -273 Descending Seattle Center
Tue 01:51:22 PM 47.9003 -122.2864 180° South 133 153 800 -197 Descending Seattle Center
Tue 01:53:00 PM 47.9070 -122.2816 56° Northeast  Level Estimated

Login

Don't have an account? Register now (free) for customized features, flight alerts, and more!